Time;durP1;ratioP1;P1;durP2;ratioP2;P2;SDS_P1;SDS_P2;PMS_P1;PMS_P2;Temp;Humidity;BMP_temperature;BMP_pressure;BME280_temperature;BME280_humidity;BME280_pressure;Samples;Min_cycle;Max_cycle;Signal;HPM_P1;HPM_P2
2024/01/09 00:02:13;;;;;;;;;;;;;;;16.95;41.39;101289.28;10327080;28;956;-79
2024/01/09 00:07:09;;;;;;;;;;;;;;;16.97;41.34;101281.34;10328283;28;877;-79
2024/01/09 00:12:04;;;;;;;;;;;;;;;16.94;41.61;101284.03;10326673;28;992;-79
2024/01/09 00:17:00;;;;;;;;;;;;;;;16.93;41.42;101275.28;10326737;28;1965;-79
2024/01/09 00:21:56;;;;;;;;;;;;;;;16.94;41.27;101279.63;10326897;28;954;-79
2024/01/09 00:26:52;;;;;;;;;;;;;;;16.92;41.50;101268.25;10326656;28;854;-79
2024/01/09 00:31:48;;;;;;;;;;;;;;;16.90;41.57;101270.06;10326597;28;917;-78
2024/01/09 00:36:44;;;;;;;;;;;;;;;16.93;41.23;101263.88;10326157;28;1898;-79
2024/01/09 00:41:40;;;;;;;;;;;;;;;16.90;41.36;101264.78;10326111;28;898;-79
2024/01/09 00:46:36;;;;;;;;;;;;;;;16.88;41.55;101255.16;10326325;28;934;-79
2024/01/09 00:51:32;;;;;;;;;;;;;;;16.91;41.48;101263.03;10325857;28;882;-79
2024/01/09 00:56:28;;;;;;;;;;;;;;;16.88;41.37;101252.53;10325689;28;1910;-79
2024/01/09 01:01:23;;;;;;;;;;;;;;;16.86;41.56;101252.53;10325702;28;870;-79
2024/01/09 01:06:19;;;;;;;;;;;;;;;16.87;41.28;101243.75;10325471;28;769;-79
2024/01/09 01:11:15;;;;;;;;;;;;;;;16.83;41.42;101242.94;10326375;28;822;-79
2024/01/09 01:16:11;;;;;;;;;;;;;;;16.86;41.46;101248.13;10324794;28;1885;-79
2024/01/09 01:21:07;;;;;;;;;;;;;;;16.84;41.32;101257.81;10324781;28;853;-79
2024/01/09 01:26:03;;;;;;;;;;;;;;;16.82;41.29;101250.84;10326095;28;862;-79
2024/01/09 01:30:59;;;;;;;;;;;;;;;16.84;41.44;101259.59;10330963;28;930;-79
2024/01/09 01:35:54;;;;;;;;;;;;;;;16.80;41.56;101253.50;10333850;28;1898;-79
2024/01/09 01:40:50;;;;;;;;;;;;;;;16.78;41.38;101265.81;10332669;28;1332;-79
2024/01/09 01:45:46;;;;;;;;;;;;;;;16.80;41.50;101266.69;10333093;28;867;-79
2024/01/09 01:50:42;;;;;;;;;;;;;;;16.76;41.40;101257.03;10332842;28;870;-78
2024/01/09 01:55:38;;;;;;;;;;;;;;;16.75;41.51;101260.56;10332632;28;1906;-79
2024/01/09 02:00:34;;;;;;;;;;;;;;;16.75;41.34;101260.56;10332467;28;822;-79
2024/01/09 02:05:30;;;;;;;;;;;;;;;16.73;41.53;101256.22;10333371;28;840;-80
2024/01/09 02:10:26;;;;;;;;;;;;;;;16.69;41.49;101263.31;10331495;28;859;-81
2024/01/09 02:15:22;;;;;;;;;;;;;;;16.71;41.27;101258.00;10331887;28;1894;-79
2024/01/09 02:20:17;;;;;;;;;;;;;;;16.67;41.51;101259.81;10332281;28;803;-80
2024/01/09 02:25:13;;;;;;;;;;;;;;;16.67;41.62;101259.81;10332698;28;944;-79
2024/01/09 02:30:09;;;;;;;;;;;;;;;16.69;41.22;101246.63;10332565;28;981;-80
2024/01/09 02:35:05;;;;;;;;;;;;;;;16.67;41.34;101245.78;10331068;28;1953;-80
2024/01/09 02:40:02;;;;;;;;;;;;;;;16.65;41.40;101233.50;10330887;28;1279;-80
2024/01/09 02:44:58;;;;;;;;;;;;;;;16.67;41.44;101243.16;10330703;28;894;-79
2024/01/09 02:49:54;;;;;;;;;;;;;;;16.64;41.48;101247.56;10331255;28;908;-80
2024/01/09 02:54:50;;;;;;;;;;;;;;;16.68;41.43;101253.66;10330363;28;1909;-79
2024/01/09 02:59:46;;;;;;;;;;;;;;;16.67;41.26;101258.97;10330362;28;873;-79
2024/01/09 03:04:41;;;;;;;;;;;;;;;16.67;41.23;101251.94;10330690;28;922;-80
2024/01/09 03:09:37;;;;;;;;;;;;;;;16.69;41.16;101244.88;10329784;28;928;-79
2024/01/09 03:14:33;;;;;;;;;;;;;;;16.66;41.40;101250.16;10329594;28;1945;-80
2024/01/09 03:19:29;;;;;;;;;;;;;;;16.67;41.26;101240.53;10329520;28;932;-80
2024/01/09 03:24:25;;;;;;;;;;;;;;;16.67;41.15;101246.66;10329342;28;822;-80
2024/01/09 03:29:21;;;;;;;;;;;;;;;16.65;41.40;101241.41;10329084;28;786;-79
2024/01/09 03:34:17;;;;;;;;;;;;;;;16.68;41.15;101237.84;10329243;28;1893;-79
2024/01/09 03:39:14;;;;;;;;;;;;;;;16.66;41.16;101239.63;10328293;28;1268;-80
2024/01/09 03:44:12;;;;;;;;;;;;;;;16.64;41.24;101242.31;10329073;28;818;-80
2024/01/09 03:49:08;;;;;;;;;;;;;;;16.66;41.17;101244.91;10328875;28;806;-80
2024/01/09 03:54:04;;;;;;;;;;;;;;;16.60;41.44;101245.00;10327951;28;1909;-79
2024/01/09 03:59:00;;;;;;;;;;;;;;;16.61;41.08;101230.94;10327867;28;1070;-79
2024/01/09 04:03:56;;;;;;;;;;;;;;;16.62;41.24;101237.97;10327428;28;904;-79
2024/01/09 04:08:52;;;;;;;;;;;;;;;16.62;40.95;101232.69;10327641;28;909;-79
2024/01/09 04:13:48;;;;;;;;;;;;;;;16.63;41.14;101231.78;10327830;28;1945;-79
2024/01/09 04:18:44;;;;;;;;;;;;;;;16.61;41.18;101225.66;10327089;28;771;-80
2024/01/09 04:23:40;;;;;;;;;;;;;;;16.60;41.11;101230.06;10326911;28;794;-80
2024/01/09 04:28:36;;;;;;;;;;;;;;;16.62;41.09;101219.53;10326650;28;861;-79
2024/01/09 04:33:32;;;;;;;;;;;;;;;16.59;41.04;101222.22;10327044;28;1894;-79
2024/01/09 04:38:28;;;;;;;;;;;;;;;16.66;40.84;101213.31;10326460;28;1263;-80
2024/01/09 04:43:24;;;;;;;;;;;;;;;16.71;41.09;101221.16;10326901;28;956;-80
2024/01/09 04:48:19;;;;;;;;;;;;;;;16.75;40.72;101217.59;10326101;28;939;-80
2024/01/09 04:53:15;;;;;;;;;;;;;;;16.78;40.71;101217.56;10325898;28;1910;-80
2024/01/09 04:58:11;;;;;;;;;;;;;;;16.74;41.05;101218.47;10326529;28;858;-80
2024/01/09 05:03:07;;;;;;;;;;;;;;;16.75;40.90;101205.28;10326318;28;912;-80
2024/01/09 05:08:03;;;;;;;;;;;;;;;16.76;40.78;101220.19;10325500;28;841;-80
2024/01/09 05:12:59;;;;;;;;;;;;;;;16.76;40.94;101220.19;10324873;28;1955;-80
2024/01/09 05:17:55;;;;;;;;;;;;;;;16.84;40.71;101223.59;10326047;28;862;-81
2024/01/09 05:22:50;;;;;;;;;;;;;;;16.84;40.70;101220.09;10325379;28;1071;-81
2024/01/09 05:27:46;;;;;;;;;;;;;;;16.88;40.54;101220.94;10325831;28;759;-80
2024/01/09 05:32:42;;;;;;;;;;;;;;;17.02;40.31;101218.94;10325155;28;868;-75
2024/01/09 05:37:38;;;;;;;;;;;;;;;16.96;40.29;101227.81;10325145;28;1890;-80
2024/01/09 05:42:34;;;;;;;;;;;;;;;16.98;40.50;101220.75;10324852;28;885;-80
2024/01/09 05:47:30;;;;;;;;;;;;;;;17.02;40.36;101217.16;10324896;28;860;-80
2024/01/09 05:52:26;;;;;;;;;;;;;;;17.01;40.54;101220.69;10325326;28;826;-80
2024/01/09 05:57:22;;;;;;;;;;;;;;;16.99;40.50;101219.84;10325136;28;1918;-80
2024/01/09 06:02:18;;;;;;;;;;;;;;;17.05;40.29;101226.78;10324590;28;775;-79
2024/01/09 06:07:15;;;;;;;;;;;;;;;16.99;40.27;101234.78;10325024;28;866;-76
2024/01/09 06:12:11;;;;;;;;;;;;;;;17.02;40.48;101232.09;10324258;28;865;-80
2024/01/09 06:17:07;;;;;;;;;;;;;;;17.00;40.29;101233.88;10329907;28;1964;-80
2024/01/09 06:22:03;;;;;;;;;;;;;;;17.00;40.48;101236.50;10332589;28;845;-81
2024/01/09 06:26:59;;;;;;;;;;;;;;;17.12;40.20;101238.97;10331369;28;882;-80
2024/01/09 06:31:54;;;;;;;;;;;;;;;17.03;40.29;101234.72;10330695;28;1237;-80
2024/01/09 06:36:50;;;;;;;;;;;;;;;17.06;40.37;101233.81;10330600;28;1922;-80
2024/01/09 06:41:46;;;;;;;;;;;;;;;17.09;40.30;101237.25;10330855;28;854;-80
2024/01/09 06:46:42;;;;;;;;;;;;;;;17.11;40.12;101239.88;10331353;28;861;-75
2024/01/09 06:51:38;;;;;;;;;;;;;;;17.13;40.43;101243.31;10331360;28;832;-80
2024/01/09 06:56:34;;;;;;;;;;;;;;;17.11;40.49;101239.88;10330284;28;1975;-80
2024/01/09 07:01:30;;;;;;;;;;;;;;;17.06;40.26;101246.97;10330245;28;775;-80
2024/01/09 07:06:26;;;;;;;;;;;;;;;17.03;40.33;101247.03;10330040;28;867;-80
2024/01/09 07:11:22;;;;;;;;;;;;;;;16.93;40.64;101251.56;10330050;28;849;-80
2024/01/09 07:16:18;;;;;;;;;;;;;;;16.88;40.87;101252.53;10330190;28;1957;-84
2024/01/09 07:21:13;;;;;;;;;;;;;;;16.80;40.77;101248.25;10329485;28;970;-81
2024/01/09 07:26:09;;;;;;;;;;;;;;;16.72;40.97;101262.41;10328157;28;875;-80
2024/01/09 07:31:05;;;;;;;;;;;;;;;16.63;40.90;101258.97;10329104;28;845;-79
2024/01/09 07:36:01;;;;;;;;;;;;;;;16.57;41.20;101266.09;10329168;28;1894;-83
2024/01/09 07:40:57;;;;;;;;;;;;;;;16.65;40.64;101267.72;10329655;28;976;-81
2024/01/09 07:45:54;;;;;;;;;;;;;;;16.65;40.70;101274.75;10329035;28;936;-85
2024/01/09 07:50:49;;;;;;;;;;;;;;;16.69;40.77;101279.09;10328927;28;912;-80
2024/01/09 07:55:45;;;;;;;;;;;;;;;16.79;40.71;101279.84;10328588;28;1914;-80
2024/01/09 08:00:41;;;;;;;;;;;;;;;16.81;40.83;101285.97;10328571;28;841;-80
2024/01/09 08:05:37;;;;;;;;;;;;;;;16.88;40.50;101282.38;10328175;28;833;-78
2024/01/09 08:10:33;;;;;;;;;;;;;;;16.97;40.50;101281.34;10327719;28;833;-81
2024/01/09 08:15:29;;;;;;;;;;;;;;;16.94;40.31;101287.53;10325293;28;1889;-78
2024/01/09 08:20:25;;;;;;;;;;;;;;;16.99;40.14;101287.47;10326719;28;898;-81
2024/01/09 08:25:21;;;;;;;;;;;;;;;17.00;40.08;101276.94;10327011;28;894;-75
2024/01/09 08:30:17;;;;;;;;;;;;;;;17.03;40.11;101284.78;10326727;28;935;-83
2024/01/09 08:35:12;;;;;;;;;;;;;;;17.01;40.20;101281.28;10325949;28;1894;-80
2024/01/09 08:40:09;;;;;;;;;;;;;;;17.04;40.32;101288.28;10325964;28;774;-80
2024/01/09 08:45:05;;;;;;;;;;;;;;;17.06;40.11;101294.41;10325311;28;972;-81
2024/01/09 08:50:00;;;;;;;;;;;;;;;17.05;40.28;101288.22;10325976;28;781;-80
2024/01/09 08:54:56;;;;;;;;;;;;;;;17.10;40.29;101288.16;10325706;28;1914;-80
2024/01/09 08:59:53;;;;;;;;;;;;;;;17.07;40.35;101290.84;10325998;28;893;-79
2024/01/09 09:04:49;;;;;;;;;;;;;;;17.07;39.96;101282.94;10325246;28;856;-79
2024/01/09 09:09:45;;;;;;;;;;;;;;;17.11;40.30;101281.13;10325270;28;838;-78
2024/01/09 09:14:41;;;;;;;;;;;;;;;17.12;40.34;101274.97;10325978;28;1894;-78
2024/01/09 09:19:37;;;;;;;;;;;;;;;17.07;40.38;101286.44;10325006;28;901;-82
2024/01/09 09:24:33;;;;;;;;;;;;;;;17.11;40.29;101289.94;10325028;28;809;-78
2024/01/09 09:29:29;;;;;;;;;;;;;;;17.11;40.40;101289.94;10325174;28;818;-78
2024/01/09 09:34:25;;;;;;;;;;;;;;;17.11;40.25;101289.03;10324785;28;1961;-78
2024/01/09 09:39:21;;;;;;;;;;;;;;;17.13;40.22;101293.38;10324726;28;1367;-80
2024/01/09 09:44:16;;;;;;;;;;;;;;;17.12;40.33;101301.31;10324704;28;884;-79
2024/01/09 09:49:12;;;;;;;;;;;;;;;17.18;40.14;101291.53;10325221;28;845;-79
2024/01/09 09:54:08;;;;;;;;;;;;;;;17.14;40.18;101300.41;10332906;28;1918;-85
2024/01/09 09:59:04;;;;;;;;;;;;;;;17.17;40.00;101288.94;10332561;28;878;-78
2024/01/09 10:04:00;;;;;;;;;;;;;;;17.19;40.18;101290.66;10332269;28;777;-79
2024/01/09 10:08:56;;;;;;;;;;;;;;;17.18;40.07;101293.31;10332050;28;878;-79
2024/01/09 10:13:52;;;;;;;;;;;;;;;17.18;40.23;101281.00;10332162;28;1960;-77
2024/01/09 10:18:48;;;;;;;;;;;;;;;17.22;40.00;101287.97;10331047;28;882;-79
2024/01/09 10:23:44;;;;;;;;;;;;;;;17.19;40.23;101277.50;10331503;28;769;-76
2024/01/09 10:28:41;;;;;;;;;;;;;;;17.21;40.22;101270.44;10330763;28;864;-78
2024/01/09 10:33:37;;;;;;;;;;;;;;;17.22;40.17;101266.91;10330942;28;1890;-82
2024/01/09 10:38:32;;;;;;;;;;;;;;;17.21;40.27;101269.53;10329956;28;1318;-80
2024/01/09 10:43:28;;;;;;;;;;;;;;;17.25;40.08;101266.84;10330685;28;804;-81
2024/01/09 10:48:24;;;;;;;;;;;;;;;17.23;40.26;101259.84;10330235;28;966;-80
2024/01/09 10:53:20;;;;;;;;;;;;;;;17.22;40.20;101251.09;10329700;28;1969;-79
2024/01/09 10:58:16;;;;;;;;;;;;;;;17.25;40.40;101245.75;10330430;28;777;-76
2024/01/09 11:03:12;;;;;;;;;;;;;;;17.25;40.37;101243.13;10329792;28;814;-78
2024/01/09 11:08:08;;;;;;;;;;;;;;;17.26;40.37;101239.56;10329756;28;818;-80
2024/01/09 11:13:04;;;;;;;;;;;;;;;17.27;40.30;101238.69;10329697;28;893;-79
2024/01/09 11:18:00;;;;;;;;;;;;;;;17.25;40.26;101221.19;10329110;28;1957;-80
2024/01/09 11:22:56;;;;;;;;;;;;;;;17.27;39.88;101220.25;10329167;28;1172;-80
2024/01/09 11:27:53;;;;;;;;;;;;;;;17.30;39.87;101203.53;10329584;28;813;-80
2024/01/09 11:32:49;;;;;;;;;;;;;;;17.32;39.63;101201.72;10328855;28;770;-80
2024/01/09 11:37:48;;;;;;;;;;;;;;;17.30;39.49;101201.75;10328444;28;1944;-80
2024/01/09 11:42:44;;;;;;;;;;;;;;;17.36;39.34;101192.00;10328171;28;936;-80
2024/01/09 11:47:40;;;;;;;;;;;;;;;17.35;39.96;101185.00;10328722;28;754;-78
2024/01/09 11:52:36;;;;;;;;;;;;;;;17.34;39.61;101175.34;10327870;28;782;-78
2024/01/09 11:57:32;;;;;;;;;;;;;;;17.37;40.08;101181.44;10327554;28;1969;-77
2024/01/09 12:02:28;;;;;;;;;;;;;;;17.40;39.80;101169.97;10327482;28;791;-77
2024/01/09 12:07:24;;;;;;;;;;;;;;;17.49;39.58;101169.78;10327364;28;849;-77
2024/01/09 12:12:20;;;;;;;;;;;;;;;17.47;39.82;101171.56;10326503;28;865;-77
2024/01/09 12:17:16;;;;;;;;;;;;;;;17.52;39.55;101160.03;10326135;28;1902;-77
2024/01/09 12:22:12;;;;;;;;;;;;;;;17.58;39.56;101160.81;10327358;28;798;-77
2024/01/09 12:27:08;;;;;;;;;;;;;;;17.62;39.47;101155.44;10326373;28;956;-77
2024/01/09 12:32:04;;;;;;;;;;;;;;;17.66;39.42;101151.88;10326326;28;821;-78
2024/01/09 12:37:00;;;;;;;;;;;;;;;17.72;39.48;101141.19;10325201;28;1894;-77
2024/01/09 12:41:56;;;;;;;;;;;;;;;17.71;39.31;101139.47;10324368;28;1016;-77
2024/01/09 12:46:52;;;;;;;;;;;;;;;17.79;39.25;101135.75;10324210;28;826;-78
2024/01/09 12:51:48;;;;;;;;;;;;;;;17.81;39.25;101134.88;10324115;28;902;-77
2024/01/09 12:56:44;;;;;;;;;;;;;;;17.89;39.27;101126.78;10323496;28;1906;-77
2024/01/09 13:01:40;;;;;;;;;;;;;;;17.94;39.21;101125.78;10324044;28;757;-80
2024/01/09 13:06:36;;;;;;;;;;;;;;;17.98;39.25;101126.59;10323765;28;865;-78
2024/01/09 13:11:32;;;;;;;;;;;;;;;18.03;39.13;101115.97;10323706;28;793;-78
2024/01/09 13:16:28;;;;;;;;;;;;;;;18.04;39.28;101123.81;10323256;28;1893;-79
2024/01/09 13:21:24;;;;;;;;;;;;;;;18.07;38.88;101126.38;10323274;28;831;-80
2024/01/09 13:26:20;;;;;;;;;;;;;;;18.11;39.00;101135.13;10321870;28;874;-80
2024/01/09 13:31:15;;;;;;;;;;;;;;;18.18;38.95;101128.78;10323221;28;861;-88
2024/01/09 13:36:11;;;;;;;;;;;;;;;18.18;38.98;101128.78;10283241;28;1134539;-76
2024/01/09 13:41:07;;;;;;;;;;;;;;;18.27;38.87;101127.72;10324607;28;890;-79
2024/01/09 13:46:03;;;;;;;;;;;;;;;18.25;39.00;101134.78;10325020;28;936;-78
2024/01/09 13:50:59;;;;;;;;;;;;;;;18.24;39.08;101122.50;10324428;28;889;-78
2024/01/09 13:55:55;;;;;;;;;;;;;;;18.25;39.08;101129.53;10324334;28;1914;-78
2024/01/09 14:00:51;;;;;;;;;;;;;;;18.14;39.14;101128.00;10324230;28;884;-79
2024/01/09 14:05:47;;;;;;;;;;;;;;;18.08;39.19;101122.88;10323870;28;884;-78
2024/01/09 14:10:43;;;;;;;;;;;;;;;18.04;39.54;101122.97;10323239;28;913;-77
2024/01/09 14:15:39;;;;;;;;;;;;;;;17.95;39.48;101122.25;10324104;28;1902;-78
2024/01/09 14:20:35;;;;;;;;;;;;;;;17.93;39.38;101105.59;10323845;28;810;-77
2024/01/09 14:25:31;;;;;;;;;;;;;;;17.92;39.46;101105.63;10324274;28;892;-77
2024/01/09 14:30:27;;;;;;;;;;;;;;;17.83;39.53;101109.34;10323773;28;808;-78
2024/01/09 14:35:22;;;;;;;;;;;;;;;17.81;39.69;101115.53;10323629;28;1967;-75
2024/01/09 14:40:18;;;;;;;;;;;;;;;17.69;39.73;101095.56;10330758;28;715;-78
2024/01/09 14:45:15;;;;;;;;;;;;;;;17.71;39.53;101099.91;10330191;28;943;-78
2024/01/09 14:50:11;;;;;;;;;;;;;;;17.69;39.43;101093.78;10330903;28;872;-79
2024/01/09 14:55:06;;;;;;;;;;;;;;;17.65;39.52;101102.66;10329734;28;1917;-79
2024/01/09 15:00:04;;;;;;;;;;;;;;;17.66;39.51;101101.75;10330583;28;795;-78
2024/01/09 15:05:00;;;;;;;;;;;;;;;17.66;39.73;101093.84;10329530;28;892;-78
2024/01/09 15:09:56;;;;;;;;;;;;;;;17.66;39.71;101101.75;10330247;28;842;-82
2024/01/09 15:14:52;;;;;;;;;;;;;;;17.64;39.78;101098.28;10329630;28;1898;-77
2024/01/09 15:19:48;;;;;;;;;;;;;;;17.62;39.78;101097.44;10329375;28;878;-78
2024/01/09 15:24:44;;;;;;;;;;;;;;;17.63;39.81;101115.00;10328730;28;870;-78
2024/01/09 15:29:40;;;;;;;;;;;;;;;17.64;39.57;101106.19;10328877;28;854;-78
2024/01/09 15:34:36;;;;;;;;;;;;;;;17.60;39.75;101109.78;10328565;28;1898;-78
2024/01/09 15:39:32;;;;;;;;;;;;;;;17.60;39.58;101107.16;10327617;28;1197;-78
2024/01/09 15:44:28;;;;;;;;;;;;;;;17.59;39.67;101112.47;10328132;28;878;-78
2024/01/09 15:49:24;;;;;;;;;;;;;;;17.54;39.61;101107.28;10327517;28;876;-79
2024/01/09 15:54:19;;;;;;;;;;;;;;;17.58;39.86;101108.97;10328859;28;1910;-78
2024/01/09 15:59:15;;;;;;;;;;;;;;;17.58;39.75;101106.34;10328456;28;937;-79
2024/01/09 16:04:11;;;;;;;;;;;;;;;17.58;39.80;101111.59;10327653;28;775;-78
2024/01/09 16:09:11;;;;;;;;;;;;;;;17.59;39.79;101115.09;10326905;28;834;-78
2024/01/09 16:14:07;;;;;;;;;;;;;;;17.58;39.88;101110.72;10327773;28;1901;-78
2024/01/09 16:19:05;;;;;;;;;;;;;;;17.56;39.80;101110.75;10327633;28;873;-78
2024/01/09 16:24:01;;;;;;;;;;;;;;;17.49;40.01;101115.28;10327416;28;876;-79
2024/01/09 16:28:57;;;;;;;;;;;;;;;17.43;40.01;101117.19;10327297;28;853;-80
2024/01/09 16:33:53;;;;;;;;;;;;;;;17.37;40.19;101127.81;10326457;28;1894;-79
2024/01/09 16:38:49;;;;;;;;;;;;;;;17.29;40.36;101126.22;10326669;28;1212;-75
2024/01/09 16:43:44;;;;;;;;;;;;;;;17.25;40.47;101124.53;10326918;28;837;-80
2024/01/09 16:48:47;;;;;;;;;;;;;;;17.27;40.66;101129.78;10326727;28;818;-78
2024/01/09 16:53:43;;;;;;;;;;;;;;;17.21;40.46;101122.88;10325892;28;1910;-77
2024/01/09 16:58:39;;;;;;;;;;;;;;;17.21;40.36;101130.78;10325529;28;861;-80
2024/01/09 17:03:35;;;;;;;;;;;;;;;17.27;40.35;101127.16;10325612;28;874;-81
2024/01/09 17:08:31;;;;;;;;;;;;;;;17.32;40.41;101133.22;10325594;28;1027;-84
2024/01/09 17:13:27;;;;;;;;;;;;;;;17.34;40.30;101128.75;10325454;28;1932;-81
2024/01/09 17:18:23;;;;;;;;;;;;;;;17.37;40.43;101125.19;10326218;28;787;-81
2024/01/09 17:23:19;;;;;;;;;;;;;;;17.42;40.02;101124.22;10325827;28;796;-83
2024/01/09 17:28:15;;;;;;;;;;;;;;;17.44;40.10;101126.81;10325841;28;858;-82
2024/01/09 17:33:11;;;;;;;;;;;;;;;17.45;40.03;101134.72;10325125;28;826;-81
2024/01/09 17:38:07;;;;;;;;;;;;;;;17.48;40.08;101124.09;10324834;28;1890;-82
2024/01/09 17:43:03;;;;;;;;;;;;;;;17.48;40.00;101125.88;10324824;28;965;-81
2024/01/09 17:47:59;;;;;;;;;;;;;;;17.50;40.07;101121.41;10324744;28;949;-81
2024/01/09 17:52:55;;;;;;;;;;;;;;;17.49;39.98;101110.00;10325350;28;877;-80
2024/01/09 17:57:51;;;;;;;;;;;;;;;17.51;40.22;101112.63;10324434;28;1992;-80
2024/01/09 18:02:47;;;;;;;;;;;;;;;17.53;40.03;101110.84;10325252;28;853;-81
2024/01/09 18:07:43;;;;;;;;;;;;;;;17.53;40.00;101114.34;10324917;28;785;-80
2024/01/09 18:12:39;;;;;;;;;;;;;;;17.52;40.26;101116.97;10329207;28;876;-80
2024/01/09 18:17:35;;;;;;;;;;;;;;;17.57;40.15;101120.41;10332402;28;1947;-82
2024/01/09 18:22:31;;;;;;;;;;;;;;;17.57;40.12;101117.75;10331744;28;825;-82
2024/01/09 18:27:29;;;;;;;;;;;;;;;17.60;40.08;101117.69;10332089;28;824;-83
2024/01/09 18:32:25;;;;;;;;;;;;;;;17.59;39.82;101107.19;10331370;28;933;-80
2024/01/09 18:37:21;;;;;;;;;;;;;;;17.58;39.97;101108.97;10331355;28;1898;-80
2024/01/09 18:42:17;;;;;;;;;;;;;;;17.60;39.78;101115.06;10332018;28;826;-80
2024/01/09 18:47:13;;;;;;;;;;;;;;;17.60;39.96;101111.56;10330410;28;1043;-80
2024/01/09 18:52:10;;;;;;;;;;;;;;;17.60;39.80;101116.81;10331461;28;963;-80
2024/01/09 18:57:06;;;;;;;;;;;;;;;17.61;40.02;101111.53;10331118;28;1975;-80
2024/01/09 19:02:02;;;;;;;;;;;;;;;17.58;39.83;101111.59;10330460;28;789;-80
2024/01/09 19:06:59;;;;;;;;;;;;;;;17.63;39.84;101115.00;10330811;28;905;-80
2024/01/09 19:11:54;;;;;;;;;;;;;;;17.63;39.83;101108.84;10329963;28;901;-80
2024/01/09 19:16:53;;;;;;;;;;;;;;;17.61;39.93;101102.75;10329238;28;1943;-80
2024/01/09 19:21:49;;;;;;;;;;;;;;;17.63;39.78;101096.56;10329589;28;858;-80
2024/01/09 19:26:46;;;;;;;;;;;;;;;17.62;39.64;101092.16;10330067;28;839;-79
2024/01/09 19:31:42;;;;;;;;;;;;;;;17.63;39.85;101091.28;10329250;28;972;-80
2024/01/09 19:36:38;;;;;;;;;;;;;;;17.65;39.66;101088.59;10329412;28;1902;-81
2024/01/09 19:41:34;;;;;;;;;;;;;;;17.63;39.73;101090.41;10329674;28;797;-79
2024/01/09 19:46:30;;;;;;;;;;;;;;;17.67;39.61;101090.31;10328686;28;817;-80
2024/01/09 19:51:27;;;;;;;;;;;;;;;17.65;39.44;101086.81;10329212;28;878;-80
2024/01/09 19:56:22;;;;;;;;;;;;;;;17.62;39.85;101092.16;10328200;28;1964;-79
2024/01/09 20:01:18;;;;;;;;;;;;;;;17.67;39.74;101092.94;10328374;28;904;-80
2024/01/09 20:06:14;;;;;;;;;;;;;;;17.67;39.62;101078.91;10327904;28;806;-80
2024/01/09 20:11:10;;;;;;;;;;;;;;;17.65;39.84;101080.69;10327678;28;880;-80
2024/01/09 20:16:08;;;;;;;;;;;;;;;17.67;39.67;101089.44;10326818;28;1893;-80
2024/01/09 20:21:04;;;;;;;;;;;;;;;17.61;39.65;101085.16;10327242;28;932;-79
2024/01/09 20:26:00;;;;;;;;;;;;;;;17.61;39.66;101086.94;10327103;28;936;-79
2024/01/09 20:30:56;;;;;;;;;;;;;;;17.59;39.80;101078.19;10327991;28;901;-80
2024/01/09 20:35:54;;;;;;;;;;;;;;;17.50;40.08;101071.31;10326699;28;1906;-81
2024/01/09 20:40:50;;;;;;;;;;;;;;;17.47;39.88;101074.03;10327323;28;897;-80
2024/01/09 20:45:47;;;;;;;;;;;;;;;17.45;40.13;101067.94;10326368;28;751;-80
2024/01/09 20:50:43;;;;;;;;;;;;;;;17.40;40.27;101062.75;10326170;28;865;-80
2024/01/09 20:55:39;;;;;;;;;;;;;;;17.36;40.21;101068.97;10326042;28;1981;-79
2024/01/09 21:00:35;;;;;;;;;;;;;;;17.39;40.17;101079.47;10326569;28;942;-80
2024/01/09 21:05:35;;;;;;;;;;;;;;;17.32;40.37;101072.59;10326624;28;888;-80
2024/01/09 21:10:30;;;;;;;;;;;;;;;17.33;40.18;101070.81;10326336;28;861;-80
2024/01/09 21:15:26;;;;;;;;;;;;;;;17.29;40.19;101070.88;10325522;28;1962;-79
2024/01/09 21:20:22;;;;;;;;;;;;;;;17.23;40.29;101057.81;10325721;28;865;-79
2024/01/09 21:25:18;;;;;;;;;;;;;;;17.25;40.18;101061.28;10326104;28;870;-80
2024/01/09 21:30:14;;;;;;;;;;;;;;;17.22;40.32;101061.38;10325306;28;964;-79
2024/01/09 21:35:10;;;;;;;;;;;;;;;17.18;40.41;101059.69;10324571;28;1959;-79
2024/01/09 21:40:06;;;;;;;;;;;;;;;17.13;40.36;101066.81;10325857;28;925;-80
2024/01/09 21:45:02;;;;;;;;;;;;;;;17.12;40.54;101053.69;10325213;28;938;-79
2024/01/09 21:49:58;;;;;;;;;;;;;;;17.09;40.53;101062.50;10333273;28;853;-79
2024/01/09 21:54:54;;;;;;;;;;;;;;;17.04;40.66;101069.63;10332980;28;1913;-79
2024/01/09 21:59:49;;;;;;;;;;;;;;;17.04;40.52;101069.63;10332373;28;996;-79
2024/01/09 22:04:45;;;;;;;;;;;;;;;17.02;40.44;101074.06;10332935;28;786;-79
2024/01/09 22:09:41;;;;;;;;;;;;;;;16.99;40.55;101074.13;10332508;28;913;-80
2024/01/09 22:14:37;;;;;;;;;;;;;;;16.97;40.49;101065.38;10332207;28;1957;-80
2024/01/09 22:19:33;;;;;;;;;;;;;;;16.95;40.62;101077.69;10332030;28;999;-80
2024/01/09 22:24:29;;;;;;;;;;;;;;;16.93;40.50;101068.97;10331895;28;861;-79
2024/01/09 22:29:25;;;;;;;;;;;;;;;16.93;40.66;101072.47;10331717;28;772;-79
2024/01/09 22:34:21;;;;;;;;;;;;;;;16.89;40.76;101070.78;10330762;28;1955;-79
2024/01/09 22:39:16;;;;;;;;;;;;;;;16.88;40.76;101070.81;10331615;28;1184;-79
2024/01/09 22:44:12;;;;;;;;;;;;;;;16.89;40.72;101060.25;10331750;28;929;-79
2024/01/09 22:49:08;;;;;;;;;;;;;;;16.89;40.53;101062.00;10330989;28;890;-79
2024/01/09 22:54:04;;;;;;;;;;;;;;;16.86;40.67;101052.41;10330729;28;1969;-79
2024/01/09 22:59:00;;;;;;;;;;;;;;;16.89;40.39;101051.47;10330700;28;809;-79
2024/01/09 23:03:56;;;;;;;;;;;;;;;16.85;40.54;101048.91;10330039;28;844;-79
2024/01/09 23:08:52;;;;;;;;;;;;;;;16.89;40.35;101051.47;10330235;28;762;-80
2024/01/09 23:13:48;;;;;;;;;;;;;;;16.91;40.39;101060.22;10329959;28;1889;-79
2024/01/09 23:18:44;;;;;;;;;;;;;;;16.86;40.32;101058.53;10329882;28;873;-78
2024/01/09 23:23:40;;;;;;;;;;;;;;;16.85;40.34;101055.94;10330095;28;853;-79
2024/01/09 23:28:36;;;;;;;;;;;;;;;16.85;40.39;101048.03;10329707;28;822;-79
2024/01/09 23:33:32;;;;;;;;;;;;;;;16.83;40.51;101052.47;10329851;28;866;-79
2024/01/09 23:38:28;;;;;;;;;;;;;;;16.82;40.34;101051.59;10328378;28;1957;-79
2024/01/09 23:43:24;;;;;;;;;;;;;;;16.80;40.30;101053.38;10328963;28;751;-79
2024/01/09 23:48:20;;;;;;;;;;;;;;;16.77;40.37;101037.66;10328833;28;853;-79
2024/01/09 23:53:18;;;;;;;;;;;;;;;16.75;40.39;101031.50;10328547;28;861;-79
2024/01/09 23:58:14;;;;;;;;;;;;;;;16.72;40.49;101033.34;10328188;28;1963;-79
